Aeroporto :
LOGIN :

Iscrizione | Disclaimer

   EN    FR    IT 

 










Sommario :    VFR   VFR Marginale   IFR   IFR Intensivo   IFR Molto Intensivo
Visibilità : 
Base nubi : 
>= 8 km
>= 3000ft
5 / 8 km
1000 / 3000 ft
1500m / 5 km
500 / 1000 ft
800 / 1500m
200 / 500 ft
< 800m
< 200 ft
Simboli :   Temporali  Nebbia  Neve Forte  Precipitazioni Forti  Vento > 20 kt
SIGMETs :   Varie  Temporali  Ghiacco  Turbolenza  Onda orograficha  Ceneri Vulcaniche






- Altitudine del aeroporto : 978 ft
- Codice IATA : LNZ


LOWL - Linz

ULTIMO METAR :
  • 042120Z AUTO 26010KT 9999 FEW010 SCT014 BKN050 15/14 Q0997

METARs OBSOLETI :
  • 042050Z 26010KT 9999 FEW006 SCT011 BKN045 15/14 Q0997 TEMPO SHRA
  • 042020Z 26010KT 9999 -SHRA FEW007 SCT011 FEW040CB BKN045 15/14 Q0997 TEMPO SHRA
  • 041950Z 29020KT 8000 SHRA FEW030 FEW040CB SCT045 BKN075 15/14 Q0996 TEMPO NSW BECMG 27008KT
  • 041920Z 27021KT 240V300 9999 VCTS FEW030 FEW040CB SCT045 BKN070 18/13 Q0995 TEMPO TSRA BECMG 27008KT
  • 041850Z 29005KT 9999 FEW035 FEW040CB 18/13 Q0994 TEMPO FM1930 25015G25KT TSRA

TAF TAF LOWL
Valido dal 04 a 18 ore il 05 a 18 ore UTC


041715Z 0418/0518 28005KT 9999 FEW020 BKN040 TX20/0418Z TN13/0506Z
TEMPO 0419/0507 25012KT SHRA
PROB40
TEMPO 0419/0421 25015G25KT 5000 TSRA FEW020CB BKN030
TEMPO 0507/0518 25010KT -SHRA



MetMap, La meteo Aeronautica in un colpo d'occhio ! - Copyright ORBIFLY Dicembre 2007 - Disclaimer

ORBIFLY MET'MAP TEAM :

Programmazione e sviluppo : Alexandra Zaïnal
Concezione : Baudouin d'Aumeries
Aiuto per la programmazione : Marc-Olivier Méhu
Supporto tecnico e logistico : Manuel Goepfert
Aiuto per la traduzione : Arnaldo La Scala

Contatto : metmap@orbifly.com




FONTI E CREDITI :

   NOAA